sensor_id;sensor_type;location;lat;lon;timestamp;pressure;altitude;pressure_sealevel;temperature;humidity
6134;BME280;3098;42.678;23.364;2024-02-23T00:00:39;94744.44;;;4.79;63.36
6134;BME280;3098;42.678;23.364;2024-02-23T00:03:05;94744.19;;;4.75;63.89
6134;BME280;3098;42.678;23.364;2024-02-23T00:05:31;94749.97;;;4.72;64.12
6134;BME280;3098;42.678;23.364;2024-02-23T00:07:57;94736.41;;;4.65;63.86
6134;BME280;3098;42.678;23.364;2024-02-23T00:10:22;94727.22;;;4.68;63.72
6134;BME280;3098;42.678;23.364;2024-02-23T00:12:48;94732.47;;;4.68;63.95
6134;BME280;3098;42.678;23.364;2024-02-23T00:15:13;94743.47;;;4.65;64.34
6134;BME280;3098;42.678;23.364;2024-02-23T00:17:39;94747.91;;;4.64;63.51
6134;BME280;3098;42.678;23.364;2024-02-23T00:20:05;94735.63;;;4.65;63.74
6134;BME280;3098;42.678;23.364;2024-02-23T00:22:33;94742.69;;;4.64;63.71
6134;BME280;3098;42.678;23.364;2024-02-23T00:24:59;94747.63;;;4.66;63.60
6134;BME280;3098;42.678;23.364;2024-02-23T00:27:25;94750.25;;;4.66;63.90
6134;BME280;3098;42.678;23.364;2024-02-23T00:29:51;94746.84;;;4.65;63.88
6134;BME280;3098;42.678;23.364;2024-02-23T00:32:17;94735.91;;;4.58;64.42
6134;BME280;3098;42.678;23.364;2024-02-23T00:34:42;94728.53;;;4.65;63.12
6134;BME280;3098;42.678;23.364;2024-02-23T00:37:08;94723.28;;;4.70;63.55
6134;BME280;3098;42.678;23.364;2024-02-23T00:39:34;94725.09;;;4.70;63.56
6134;BME280;3098;42.678;23.364;2024-02-23T00:42:00;94724.31;;;4.74;63.05
6134;BME280;3098;42.678;23.364;2024-02-23T00:44:25;94719.06;;;4.74;63.74
6134;BME280;3098;42.678;23.364;2024-02-23T00:46:51;94729.31;;;4.71;63.80
6134;BME280;3098;42.678;23.364;2024-02-23T00:49:16;94724.63;;;4.63;64.26
6134;BME280;3098;42.678;23.364;2024-02-23T00:51:42;94716.03;;;4.57;63.97
6134;BME280;3098;42.678;23.364;2024-02-23T00:54:08;94711.53;;;4.63;64.01
6134;BME280;3098;42.678;23.364;2024-02-23T00:56:34;94706.03;;;4.64;64.16
6134;BME280;3098;42.678;23.364;2024-02-23T00:59:00;94705.81;;;4.61;64.36
6134;BME280;3098;42.678;23.364;2024-02-23T01:01:26;94695.06;;;4.62;63.59
6134;BME280;3098;42.678;23.364;2024-02-23T01:03:52;94699.47;;;4.67;63.79
6134;BME280;3098;42.678;23.364;2024-02-23T01:06:18;94711.25;;;4.69;63.84
6134;BME280;3098;42.678;23.364;2024-02-23T01:08:43;94710.69;;;4.72;64.43
6134;BME280;3098;42.678;23.364;2024-02-23T01:11:09;94706.53;;;4.66;64.53
6134;BME280;3098;42.678;23.364;2024-02-23T01:13:35;94707.38;;;4.62;63.75
6134;BME280;3098;42.678;23.364;2024-02-23T01:16:01;94696.91;;;4.62;63.84
6134;BME280;3098;42.678;23.364;2024-02-23T01:18:27;94692.19;;;4.64;63.62
6134;BME280;3098;42.678;23.364;2024-02-23T01:20:53;94690.06;;;4.66;63.71
6134;BME280;3098;42.678;23.364;2024-02-23T01:23:18;94692.69;;;4.66;64.08
6134;BME280;3098;42.678;23.364;2024-02-23T01:25:44;94706.06;;;4.59;63.71
6134;BME280;3098;42.678;23.364;2024-02-23T01:28:09;94699.28;;;4.58;63.58
6134;BME280;3098;42.678;23.364;2024-02-23T01:30:35;94690.09;;;4.61;64.51
6134;BME280;3098;42.678;23.364;2024-02-23T01:33:00;94679.56;;;4.71;63.69
6134;BME280;3098;42.678;23.364;2024-02-23T01:35:26;94679.53;;;4.76;63.42
6134;BME280;3098;42.678;23.364;2024-02-23T01:37:53;94686.38;;;4.72;63.61
6134;BME280;3098;42.678;23.364;2024-02-23T01:40:18;94696.13;;;4.61;64.12
6134;BME280;3098;42.678;23.364;2024-02-23T01:42:44;94679.34;;;4.62;64.20
6134;BME280;3098;42.678;23.364;2024-02-23T01:45:10;94670.50;;;4.58;64.58
6134;BME280;3098;42.678;23.364;2024-02-23T01:47:36;94668.69;;;4.53;64.93
6134;BME280;3098;42.678;23.364;2024-02-23T01:50:02;94678.94;;;4.45;64.96
6134;BME280;3098;42.678;23.364;2024-02-23T01:52:28;94672.38;;;4.47;64.67
6134;BME280;3098;42.678;23.364;2024-02-23T01:54:54;94667.91;;;4.53;65.51
6134;BME280;3098;42.678;23.364;2024-02-23T01:57:22;94669.66;;;4.63;64.47
6134;BME280;3098;42.678;23.364;2024-02-23T01:59:48;94664.94;;;4.65;64.76
6134;BME280;3098;42.678;23.364;2024-02-23T02:02:15;94665.50;;;4.62;64.56
6134;BME280;3098;42.678;23.364;2024-02-23T02:04:41;94676.25;;;4.55;64.61
6134;BME280;3098;42.678;23.364;2024-02-23T02:07:06;94651.88;;;4.60;64.79
6134;BME280;3098;42.678;23.364;2024-02-23T02:09:32;94656.84;;;4.61;64.59
6134;BME280;3098;42.678;23.364;2024-02-23T02:11:58;94650.56;;;4.62;64.89
6134;BME280;3098;42.678;23.364;2024-02-23T02:14:23;94655.31;;;4.60;65.21
6134;BME280;3098;42.678;23.364;2024-02-23T02:16:49;94651.38;;;4.58;64.98
6134;BME280;3098;42.678;23.364;2024-02-23T02:19:15;94653.69;;;4.64;64.78
6134;BME280;3098;42.678;23.364;2024-02-23T02:21:41;94644.28;;;4.63;64.66
6134;BME280;3098;42.678;23.364;2024-02-23T02:24:06;94657.34;;;4.63;64.65
6134;BME280;3098;42.678;23.364;2024-02-23T02:26:32;94655.03;;;4.62;64.94
6134;BME280;3098;42.678;23.364;2024-02-23T02:28:58;94653.22;;;4.57;65.08
6134;BME280;3098;42.678;23.364;2024-02-23T02:31:23;94650.09;;;4.55;65.07
6134;BME280;3098;42.678;23.364;2024-02-23T02:33:49;94653.00;;;4.53;65.12
6134;BME280;3098;42.678;23.364;2024-02-23T02:36:15;94653.78;;;4.49;65.55
6134;BME280;3098;42.678;23.364;2024-02-23T02:38:41;94656.16;;;4.45;65.96
6134;BME280;3098;42.678;23.364;2024-02-23T02:41:07;94654.66;;;4.39;65.96
6134;BME280;3098;42.678;23.364;2024-02-23T02:43:32;94653.88;;;4.34;66.18
6134;BME280;3098;42.678;23.364;2024-02-23T02:45:58;94658.06;;;4.35;66.75
6134;BME280;3098;42.678;23.364;2024-02-23T02:48:24;94657.28;;;4.39;66.14
6134;BME280;3098;42.678;23.364;2024-02-23T02:50:50;94659.34;;;4.37;66.13
6134;BME280;3098;42.678;23.364;2024-02-23T02:53:17;94661.22;;;4.31;66.79
6134;BME280;3098;42.678;23.364;2024-02-23T02:55:43;94662.03;;;4.32;66.96
6134;BME280;3098;42.678;23.364;2024-02-23T02:58:11;94661.53;;;4.25;67.12
6134;BME280;3098;42.678;23.364;2024-02-23T03:00:38;94669.91;;;4.22;67.42
6134;BME280;3098;42.678;23.364;2024-02-23T03:03:03;94666.28;;;4.18;67.19
6134;BME280;3098;42.678;23.364;2024-02-23T03:05:29;94666.78;;;4.20;67.39
6134;BME280;3098;42.678;23.364;2024-02-23T03:07:55;94663.38;;;4.19;67.39
6134;BME280;3098;42.678;23.364;2024-02-23T03:10:21;94660.00;;;4.19;67.83
6134;BME280;3098;42.678;23.364;2024-02-23T03:12:47;94661.53;;;4.20;67.77
6134;BME280;3098;42.678;23.364;2024-02-23T03:15:12;94671.50;;;4.13;67.80
6134;BME280;3098;42.678;23.364;2024-02-23T03:17:39;94668.66;;;4.14;67.76
6134;BME280;3098;42.678;23.364;2024-02-23T03:20:05;94650.63;;;4.07;68.18
6134;BME280;3098;42.678;23.364;2024-02-23T03:22:34;94649.06;;;4.06;68.12
6134;BME280;3098;42.678;23.364;2024-02-23T03:25:01;94667.59;;;4.10;68.15
6134;BME280;3098;42.678;23.364;2024-02-23T03:27:33;94673.34;;;4.12;68.40
6134;BME280;3098;42.678;23.364;2024-02-23T03:29:59;94674.13;;;4.13;68.11
6134;BME280;3098;42.678;23.364;2024-02-23T03:32:25;94674.13;;;4.13;67.99
6134;BME280;3098;42.678;23.364;2024-02-23T03:34:51;94672.81;;;4.10;67.95
6134;BME280;3098;42.678;23.364;2024-02-23T03:37:17;94662.41;;;4.05;68.70
6134;BME280;3098;42.678;23.364;2024-02-23T03:39:42;94658.78;;;4.01;68.69
6134;BME280;3098;42.678;23.364;2024-02-23T03:42:08;94661.13;;;3.97;68.97
6134;BME280;3098;42.678;23.364;2024-02-23T03:44:34;94656.69;;;3.98;68.93
6134;BME280;3098;42.678;23.364;2024-02-23T03:46:59;94657.19;;;4.05;68.47
6134;BME280;3098;42.678;23.364;2024-02-23T03:49:25;94663.16;;;4.11;68.32
6134;BME280;3098;42.678;23.364;2024-02-23T03:51:50;94665.78;;;4.05;68.53
6134;BME280;3098;42.678;23.364;2024-02-23T03:54:16;94671.00;;;4.11;68.82
6134;BME280;3098;42.678;23.364;2024-02-23T03:56:42;94668.66;;;4.14;68.71
6134;BME280;3098;42.678;23.364;2024-02-23T03:59:08;94663.91;;;4.16;68.38
6134;BME280;3098;42.678;23.364;2024-02-23T04:01:38;94670.16;;;4.20;67.83
6134;BME280;3098;42.678;23.364;2024-02-23T04:04:04;94666.00;;;4.19;68.39
6134;BME280;3098;42.678;23.364;2024-02-23T04:06:30;94672.28;;;4.18;68.10
6134;BME280;3098;42.678;23.364;2024-02-23T04:08:56;94661.59;;;4.15;68.76
6134;BME280;3098;42.678;23.364;2024-02-23T04:11:22;94664.16;;;4.25;68.00
6134;BME280;3098;42.678;23.364;2024-02-23T04:13:47;94674.84;;;4.28;67.27
6134;BME280;3098;42.678;23.364;2024-02-23T04:16:13;94674.28;;;4.31;67.54
6134;BME280;3098;42.678;23.364;2024-02-23T04:18:38;94676.13;;;4.31;67.32
6134;BME280;3098;42.678;23.364;2024-02-23T04:21:06;94657.56;;;4.27;67.23
6134;BME280;3098;42.678;23.364;2024-02-23T04:23:32;94669.06;;;4.31;67.58
6134;BME280;3098;42.678;23.364;2024-02-23T04:25:59;94669.91;;;4.22;67.13
6134;BME280;3098;42.678;23.364;2024-02-23T04:28:24;94686.16;;;4.14;67.21
6134;BME280;3098;42.678;23.364;2024-02-23T04:30:52;94674.75;;;3.94;68.66
6134;BME280;3098;42.678;23.364;2024-02-23T04:33:17;94668.44;;;4.00;67.71
6134;BME280;3098;42.678;23.364;2024-02-23T04:35:43;94668.16;;;4.02;67.85
6134;BME280;3098;42.678;23.364;2024-02-23T04:38:09;94660.59;;;4.00;67.78
6134;BME280;3098;42.678;23.364;2024-02-23T04:40:35;94675.25;;;3.96;67.56
6134;BME280;3098;42.678;23.364;2024-02-23T04:43:04;94668.25;;;3.87;68.35
6134;BME280;3098;42.678;23.364;2024-02-23T04:45:29;94683.63;;;3.88;68.23
6134;BME280;3098;42.678;23.364;2024-02-23T04:47:55;94682.09;;;3.82;68.88
6134;BME280;3098;42.678;23.364;2024-02-23T04:50:21;94678.47;;;3.68;68.72
6134;BME280;3098;42.678;23.364;2024-02-23T04:52:47;94686.88;;;3.59;69.23
6134;BME280;3098;42.678;23.364;2024-02-23T04:55:13;94685.06;;;3.45;69.92
6134;BME280;3098;42.678;23.364;2024-02-23T04:57:39;94690.03;;;3.41;69.97
6134;BME280;3098;42.678;23.364;2024-02-23T05:00:05;94682.47;;;3.45;70.19
6134;BME280;3098;42.678;23.364;2024-02-23T05:02:32;94696.31;;;3.45;69.71
6134;BME280;3098;42.678;23.364;2024-02-23T05:05:02;94688.72;;;3.39;70.25
6134;BME280;3098;42.678;23.364;2024-02-23T05:07:33;94680.09;;;3.43;69.72
6134;BME280;3098;42.678;23.364;2024-02-23T05:09:59;94692.88;;;3.50;70.24
6134;BME280;3098;42.678;23.364;2024-02-23T05:12:27;94698.91;;;3.40;70.56
6134;BME280;3098;42.678;23.364;2024-02-23T05:14:53;94698.38;;;3.33;70.80
6134;BME280;3098;42.678;23.364;2024-02-23T05:17:18;94694.50;;;3.30;70.77
6134;BME280;3098;42.678;23.364;2024-02-23T05:19:44;94701.53;;;3.30;71.21
6134;BME280;3098;42.678;23.364;2024-02-23T05:22:11;94706.75;;;3.30;70.94
6134;BME280;3098;42.678;23.364;2024-02-23T05:24:37;94697.88;;;3.41;70.15
6134;BME280;3098;42.678;23.364;2024-02-23T05:27:03;94691.84;;;3.51;69.76
6134;BME280;3098;42.678;23.364;2024-02-23T05:29:29;94710.38;;;3.59;69.44
6134;BME280;3098;42.678;23.364;2024-02-23T05:31:55;94719.53;;;3.62;69.41
6134;BME280;3098;42.678;23.364;2024-02-23T05:34:21;94711.09;;;3.86;68.64
6134;BME280;3098;42.678;23.364;2024-02-23T05:36:47;94714.28;;;5.50;63.71
6134;BME280;3098;42.678;23.364;2024-02-23T05:39:13;94700.78;;;6.96;58.04
6134;BME280;3098;42.678;23.364;2024-02-23T05:41:44;94706.00;;;8.07;54.48
6134;BME280;3098;42.678;23.364;2024-02-23T05:44:10;94701.97;;;8.51;52.66
6134;BME280;3098;42.678;23.364;2024-02-23T05:46:38;94709.25;;;9.49;50.64
6134;BME280;3098;42.678;23.364;2024-02-23T05:49:04;94719.50;;;10.53;46.89
6134;BME280;3098;42.678;23.364;2024-02-23T05:51:30;94720.16;;;12.10;42.73
6134;BME280;3098;42.678;23.364;2024-02-23T05:53:57;94713.63;;;12.96;40.08
6134;BME280;3098;42.678;23.364;2024-02-23T05:56:23;94729.72;;;13.99;36.95
6134;BME280;3098;42.678;23.364;2024-02-23T05:58:51;94732.63;;;13.19;38.77
6134;BME280;3098;42.678;23.364;2024-02-23T06:01:18;94742.59;;;13.22;38.81
6134;BME280;3098;42.678;23.364;2024-02-23T06:03:44;94737.88;;;14.52;36.54
6134;BME280;3098;42.678;23.364;2024-02-23T06:06:10;94727.06;;;15.10;34.62
6134;BME280;3098;42.678;23.364;2024-02-23T06:08:37;94719.03;;;13.75;37.40
6134;BME280;3098;42.678;23.364;2024-02-23T06:11:03;94725.81;;;12.68;39.66
6134;BME280;3098;42.678;23.364;2024-02-23T06:13:32;94735.13;;;14.61;35.92
6134;BME280;3098;42.678;23.364;2024-02-23T06:15:59;94741.81;;;16.51;33.17
6134;BME280;3098;42.678;23.364;2024-02-23T06:18:24;94748.34;;;17.79;29.88
6134;BME280;3098;42.678;23.364;2024-02-23T06:20:50;94739.50;;;17.94;29.02
6134;BME280;3098;42.678;23.364;2024-02-23T06:23:16;94747.56;;;17.98;29.25
6134;BME280;3098;42.678;23.364;2024-02-23T06:25:42;94740.91;;;18.80;27.91
6134;BME280;3098;42.678;23.364;2024-02-23T06:28:08;94755.84;;;20.01;26.90
6134;BME280;3098;42.678;23.364;2024-02-23T06:30:34;94752.47;;;18.61;27.64
6134;BME280;3098;42.678;23.364;2024-02-23T06:32:59;94754.84;;;18.20;28.49
6134;BME280;3098;42.678;23.364;2024-02-23T06:35:25;94755.47;;;20.03;25.38
6134;BME280;3098;42.678;23.364;2024-02-23T06:37:50;94751.03;;;21.14;24.33
6134;BME280;3098;42.678;23.364;2024-02-23T06:40:16;94747.28;;;22.49;22.28
6134;BME280;3098;42.678;23.364;2024-02-23T06:42:42;94757.94;;;21.15;24.00
6134;BME280;3098;42.678;23.364;2024-02-23T06:45:08;94756.63;;;18.81;26.99
6134;BME280;3098;42.678;23.364;2024-02-23T06:47:34;94759.34;;;18.85;27.41
6134;BME280;3098;42.678;23.364;2024-02-23T06:50:00;94734.53;;;20.16;25.45
6134;BME280;3098;42.678;23.364;2024-02-23T06:52:26;94747.88;;;19.41;25.75
6134;BME280;3098;42.678;23.364;2024-02-23T06:54:52;94758.22;;;18.63;28.03
6134;BME280;3098;42.678;23.364;2024-02-23T06:57:17;94769.44;;;20.60;24.91
6134;BME280;3098;42.678;23.364;2024-02-23T06:59:44;94753.50;;;20.82;24.06
6134;BME280;3098;42.678;23.364;2024-02-23T07:02:09;94752.91;;;21.06;23.47
6134;BME280;3098;42.678;23.364;2024-02-23T07:04:35;94757.59;;;22.14;22.78
6134;BME280;3098;42.678;23.364;2024-02-23T07:07:01;94747.06;;;21.63;23.00
6134;BME280;3098;42.678;23.364;2024-02-23T07:09:33;94751.13;;;21.32;23.33
6134;BME280;3098;42.678;23.364;2024-02-23T07:11:58;94772.03;;;19.75;25.84
6134;BME280;3098;42.678;23.364;2024-02-23T07:14:24;94760.09;;;20.91;24.49
6134;BME280;3098;42.678;23.364;2024-02-23T07:16:50;94763.59;;;21.68;23.15
6134;BME280;3098;42.678;23.364;2024-02-23T07:19:17;94751.50;;;22.89;22.03
6134;BME280;3098;42.678;23.364;2024-02-23T07:21:43;94756.34;;;23.62;21.01
6134;BME280;3098;42.678;23.364;2024-02-23T07:24:08;94757.28;;;22.52;22.20
6134;BME280;3098;42.678;23.364;2024-02-23T07:26:34;94742.28;;;22.94;21.84
6134;BME280;3098;42.678;23.364;2024-02-23T07:29:00;94738.41;;;22.30;22.14
6134;BME280;3098;42.678;23.364;2024-02-23T07:31:25;94737.38;;;20.34;25.03
6134;BME280;3098;42.678;23.364;2024-02-23T07:33:51;94740.63;;;19.15;27.36
6134;BME280;3098;42.678;23.364;2024-02-23T07:36:17;94760.94;;;18.67;28.44
6134;BME280;3098;42.678;23.364;2024-02-23T07:38:43;94750.53;;;20.05;27.00
6134;BME280;3098;42.678;23.364;2024-02-23T07:41:10;94738.81;;;19.53;27.53
6134;BME280;3098;42.678;23.364;2024-02-23T07:43:35;94733.88;;;19.55;27.27
6134;BME280;3098;42.678;23.364;2024-02-23T07:46:01;94740.22;;;21.03;25.75
6134;BME280;3098;42.678;23.364;2024-02-23T07:48:27;94732.66;;;21.27;24.53
6134;BME280;3098;42.678;23.364;2024-02-23T07:50:53;94745.28;;;20.60;25.65
6134;BME280;3098;42.678;23.364;2024-02-23T07:53:18;94743.25;;;21.71;24.91
6134;BME280;3098;42.678;23.364;2024-02-23T07:55:44;94755.75;;;22.36;24.21
6134;BME280;3098;42.678;23.364;2024-02-23T07:58:10;94752.66;;;22.59;24.14
6134;BME280;3098;42.678;23.364;2024-02-23T08:00:36;94745.66;;;22.05;24.51
6134;BME280;3098;42.678;23.364;2024-02-23T08:03:03;94742.47;;;21.63;25.07
6134;BME280;3098;42.678;23.364;2024-02-23T08:05:29;94725.97;;;21.72;24.66
6134;BME280;3098;42.678;23.364;2024-02-23T08:07:55;94725.94;;;21.65;24.87
6134;BME280;3098;42.678;23.364;2024-02-23T08:10:21;94728.31;;;21.81;24.65
6134;BME280;3098;42.678;23.364;2024-02-23T08:12:47;94746.09;;;23.25;22.89
6134;BME280;3098;42.678;23.364;2024-02-23T08:15:12;94748.06;;;22.92;23.96
6134;BME280;3098;42.678;23.364;2024-02-23T08:17:38;94738.00;;;22.18;24.65
6134;BME280;3098;42.678;23.364;2024-02-23T08:20:05;94746.91;;;22.32;25.12
6134;BME280;3098;42.678;23.364;2024-02-23T08:22:31;94735.69;;;23.20;23.84
6134;BME280;3098;42.678;23.364;2024-02-23T08:24:59;94738.81;;;22.68;24.31
6134;BME280;3098;42.678;23.364;2024-02-23T08:27:26;94729.09;;;21.96;25.06
6134;BME280;3098;42.678;23.364;2024-02-23T08:29:52;94728.69;;;21.86;25.96
6134;BME280;3098;42.678;23.364;2024-02-23T08:32:18;94725.28;;;21.13;26.70
6134;BME280;3098;42.678;23.364;2024-02-23T08:34:44;94745.47;;;21.51;25.68
6134;BME280;3098;42.678;23.364;2024-02-23T08:37:10;94735.34;;;20.64;27.12
6134;BME280;3098;42.678;23.364;2024-02-23T08:39:37;94727.84;;;18.75;29.84
6134;BME280;3098;42.678;23.364;2024-02-23T08:42:03;94733.59;;;17.46;32.45
6134;BME280;3098;42.678;23.364;2024-02-23T08:44:29;94730.78;;;16.53;33.15
6134;BME280;3098;42.678;23.364;2024-02-23T08:46:54;94732.44;;;15.25;36.28
6134;BME280;3098;42.678;23.364;2024-02-23T08:49:20;94737.09;;;14.76;37.08
6134;BME280;3098;42.678;23.364;2024-02-23T08:51:45;94736.63;;;16.42;34.91
6134;BME280;3098;42.678;23.364;2024-02-23T08:54:11;94741.22;;;19.95;28.90
6134;BME280;3098;42.678;23.364;2024-02-23T08:56:38;94741.50;;;23.04;23.83
6134;BME280;3098;42.678;23.364;2024-02-23T08:59:08;94738.91;;;25.03;20.71
6134;BME280;3098;42.678;23.364;2024-02-23T09:01:35;94729.66;;;25.73;19.76
6134;BME280;3098;42.678;23.364;2024-02-23T09:04:01;94741.56;;;25.07;20.67
6134;BME280;3098;42.678;23.364;2024-02-23T09:06:27;94738.22;;;26.02;19.82
6134;BME280;3098;42.678;23.364;2024-02-23T09:08:52;94724.66;;;26.56;18.37
6134;BME280;3098;42.678;23.364;2024-02-23T09:11:18;94732.38;;;24.97;19.80
6134;BME280;3098;42.678;23.364;2024-02-23T09:13:44;94734.75;;;23.80;21.74
6134;BME280;3098;42.678;23.364;2024-02-23T09:16:09;94731.47;;;23.15;22.96
6134;BME280;3098;42.678;23.364;2024-02-23T09:18:38;94734.00;;;24.42;21.02
6134;BME280;3098;42.678;23.364;2024-02-23T09:21:04;94736.13;;;24.10;21.51
6134;BME280;3098;42.678;23.364;2024-02-23T09:23:29;94724.06;;;23.37;22.58
6134;BME280;3098;42.678;23.364;2024-02-23T09:25:55;94731.09;;;22.84;22.76
6134;BME280;3098;42.678;23.364;2024-02-23T09:28:20;94722.19;;;21.98;23.72
6134;BME280;3098;42.678;23.364;2024-02-23T09:30:46;94720.34;;;22.38;23.38
6134;BME280;3098;42.678;23.364;2024-02-23T09:33:11;94721.50;;;22.23;23.94
6134;BME280;3098;42.678;23.364;2024-02-23T09:35:37;94723.31;;;21.93;23.03
6134;BME280;3098;42.678;23.364;2024-02-23T09:38:03;94727.66;;;22.37;22.74
6134;BME280;3098;42.678;23.364;2024-02-23T09:40:28;94715.72;;;21.19;24.43
6134;BME280;3098;42.678;23.364;2024-02-23T09:42:58;94728.00;;;20.58;25.77
6134;BME280;3098;42.678;23.364;2024-02-23T09:45:25;94728.97;;;20.83;24.84
6134;BME280;3098;42.678;23.364;2024-02-23T09:47:56;94721.25;;;20.75;25.03
6134;BME280;3098;42.678;23.364;2024-02-23T09:50:25;94715.94;;;20.85;24.61
6134;BME280;3098;42.678;23.364;2024-02-23T09:52:53;94717.63;;;22.17;23.63
6134;BME280;3098;42.678;23.364;2024-02-23T09:55:21;94718.09;;;23.92;20.70
6134;BME280;3098;42.678;23.364;2024-02-23T09:57:48;94710.66;;;24.07;20.43
6134;BME280;3098;42.678;23.364;2024-02-23T10:00:17;94710.09;;;24.41;19.90
6134;BME280;3098;42.678;23.364;2024-02-23T10:02:43;94710.72;;;24.00;20.40
6134;BME280;3098;42.678;23.364;2024-02-23T10:05:10;94696.41;;;23.22;22.02
6134;BME280;3098;42.678;23.364;2024-02-23T10:07:37;94698.75;;;21.91;23.43
6134;BME280;3098;42.678;23.364;2024-02-23T10:10:07;94703.03;;;22.35;22.39
6134;BME280;3098;42.678;23.364;2024-02-23T10:12:34;94705.72;;;22.32;22.66
6134;BME280;3098;42.678;23.364;2024-02-23T10:15:01;94695.59;;;21.68;23.38
6134;BME280;3098;42.678;23.364;2024-02-23T10:17:30;94688.97;;;21.37;23.29
6134;BME280;3098;42.678;23.364;2024-02-23T10:19:55;94689.19;;;21.03;23.58
6134;BME280;3098;42.678;23.364;2024-02-23T10:22:23;94679.59;;;22.57;21.73
6134;BME280;3098;42.678;23.364;2024-02-23T10:24:53;94686.88;;;22.25;22.71
6134;BME280;3098;42.678;23.364;2024-02-23T10:27:20;94683.78;;;22.66;21.62
6134;BME280;3098;42.678;23.364;2024-02-23T10:29:49;94687.38;;;21.29;23.41
6134;BME280;3098;42.678;23.364;2024-02-23T10:32:15;94673.72;;;20.31;24.43
6134;BME280;3098;42.678;23.364;2024-02-23T10:34:44;94674.44;;;20.27;24.73
6134;BME280;3098;42.678;23.364;2024-02-23T10:37:12;94674.91;;;19.92;25.47
6134;BME280;3098;42.678;23.364;2024-02-23T10:39:38;94672.13;;;20.22;25.04
6134;BME280;3098;42.678;23.364;2024-02-23T10:42:09;94652.63;;;20.88;23.42
6134;BME280;3098;42.678;23.364;2024-02-23T10:44:35;94658.78;;;19.89;25.60
6134;BME280;3098;42.678;23.364;2024-02-23T10:47:02;94651.06;;;20.28;25.66
6134;BME280;3098;42.678;23.364;2024-02-23T10:49:31;94662.75;;;19.65;25.84
6134;BME280;3098;42.678;23.364;2024-02-23T10:51:57;94647.13;;;20.66;24.15
6134;BME280;3098;42.678;23.364;2024-02-23T10:54:22;94646.03;;;20.71;23.82
6134;BME280;3098;42.678;23.364;2024-02-23T10:56:51;94651.06;;;20.80;23.65
6134;BME280;3098;42.678;23.364;2024-02-23T10:59:18;94644.88;;;21.59;23.25
6134;BME280;3098;42.678;23.364;2024-02-23T11:01:48;94637.50;;;21.35;23.08
6134;BME280;3098;42.678;23.364;2024-02-23T11:04:16;94629.75;;;21.26;22.51
6134;BME280;3098;42.678;23.364;2024-02-23T11:06:42;94615.31;;;21.63;22.60
6134;BME280;3098;42.678;23.364;2024-02-23T11:09:08;94626.13;;;20.83;23.92
6134;BME280;3098;42.678;23.364;2024-02-23T11:11:38;94613.75;;;21.69;22.14
6134;BME280;3098;42.678;23.364;2024-02-23T11:14:07;94609.06;;;19.58;25.08
6134;BME280;3098;42.678;23.364;2024-02-23T11:16:39;94620.75;;;19.39;24.87
6134;BME280;3098;42.678;23.364;2024-02-23T11:19:09;94613.97;;;19.48;24.55
6134;BME280;3098;42.678;23.364;2024-02-23T11:21:37;94604.91;;;19.26;25.64
6134;BME280;3098;42.678;23.364;2024-02-23T11:24:04;94605.84;;;19.78;25.76
6134;BME280;3098;42.678;23.364;2024-02-23T11:26:30;94606.47;;;20.09;24.60
6134;BME280;3098;42.678;23.364;2024-02-23T11:28:57;94601.47;;;20.59;23.47
6134;BME280;3098;42.678;23.364;2024-02-23T11:31:25;94595.31;;;19.59;23.67
6134;BME280;3098;42.678;23.364;2024-02-23T11:33:55;94590.06;;;19.70;23.87
6134;BME280;3098;42.678;23.364;2024-02-23T11:36:29;94581.63;;;19.30;23.78
6134;BME280;3098;42.678;23.364;2024-02-23T11:38:57;94590.91;;;18.73;26.64
6134;BME280;3098;42.678;23.364;2024-02-23T11:41:24;94592.06;;;19.43;25.11
6134;BME280;3098;42.678;23.364;2024-02-23T11:43:55;94592.84;;;19.81;24.80
6134;BME280;3098;42.678;23.364;2024-02-23T11:46:22;94588.66;;;19.46;24.53
6134;BME280;3098;42.678;23.364;2024-02-23T11:48:48;94586.13;;;20.05;23.68
6134;BME280;3098;42.678;23.364;2024-02-23T11:51:22;94592.44;;;20.30;23.16
6134;BME280;3098;42.678;23.364;2024-02-23T11:53:50;94577.66;;;19.99;23.62
6134;BME280;3098;42.678;23.364;2024-02-23T11:56:16;94584.72;;;20.25;23.39
6134;BME280;3098;42.678;23.364;2024-02-23T11:58:43;94569.91;;;19.87;24.01
6134;BME280;3098;42.678;23.364;2024-02-23T12:01:10;94572.69;;;19.57;24.69
6134;BME280;3098;42.678;23.364;2024-02-23T12:03:35;94572.16;;;19.03;24.14
6134;BME280;3098;42.678;23.364;2024-02-23T12:06:02;94573.22;;;19.32;24.48
6134;BME280;3098;42.678;23.364;2024-02-23T12:08:30;94573.97;;;19.70;24.45
6134;BME280;3098;42.678;23.364;2024-02-23T12:10:57;94582.53;;;17.95;26.71
6134;BME280;3098;42.678;23.364;2024-02-23T12:13:26;94573.97;;;18.39;25.48
6134;BME280;3098;42.678;23.364;2024-02-23T12:15:55;94559.31;;;17.76;25.34
6134;BME280;3098;42.678;23.364;2024-02-23T12:18:22;94567.81;;;17.81;26.18
6134;BME280;3098;42.678;23.364;2024-02-23T12:20:49;94564.16;;;17.93;25.88
6134;BME280;3098;42.678;23.364;2024-02-23T12:23:15;94553.06;;;17.91;25.73
6134;BME280;3098;42.678;23.364;2024-02-23T12:25:52;94558.97;;;17.12;26.24
6134;BME280;3098;42.678;23.364;2024-02-23T12:28:19;94563.31;;;16.62;27.36
6134;BME280;3098;42.678;23.364;2024-02-23T12:30:45;94551.69;;;16.35;28.16
6134;BME280;3098;42.678;23.364;2024-02-23T12:33:15;94544.91;;;16.37;28.92
6134;BME280;3098;42.678;23.364;2024-02-23T12:35:41;94542.81;;;16.46;28.86
6134;BME280;3098;42.678;23.364;2024-02-23T12:38:06;94533.16;;;16.77;28.29
6134;BME280;3098;42.678;23.364;2024-02-23T12:40:32;94537.91;;;16.87;28.45
6134;BME280;3098;42.678;23.364;2024-02-23T12:42:58;94537.34;;;16.59;28.42
6134;BME280;3098;42.678;23.364;2024-02-23T12:45:23;94534.19;;;16.18;28.09
6134;BME280;3098;42.678;23.364;2024-02-23T12:47:49;94531.50;;;16.34;27.99
6134;BME280;3098;42.678;23.364;2024-02-23T12:50:16;94529.91;;;16.49;27.72
6134;BME280;3098;42.678;23.364;2024-02-23T12:52:42;94524.81;;;16.24;29.02
6134;BME280;3098;42.678;23.364;2024-02-23T12:55:08;94520.25;;;16.25;28.96
6134;BME280;3098;42.678;23.364;2024-02-23T12:57:34;94516.50;;;15.90;28.75
6134;BME280;3098;42.678;23.364;2024-02-23T12:59:59;94516.66;;;15.82;28.84
6134;BME280;3098;42.678;23.364;2024-02-23T13:02:25;94506.00;;;15.82;28.31
6134;BME280;3098;42.678;23.364;2024-02-23T13:04:51;94515.28;;;15.88;29.58
6134;BME280;3098;42.678;23.364;2024-02-23T13:07:16;94524.00;;;15.69;30.11
6134;BME280;3098;42.678;23.364;2024-02-23T13:09:42;94520.34;;;15.61;30.43